Home   Weather   Germany   Germering   Past weeks
Flag for Germany

Past Weather in Germering, Bavaria, Germany — Yesterday and Last 2 Weeks

Currently: 46 °F. Passing clouds. (Weather station: Oberpfaffenhofen, Germany). See more current weather

Past Weather in Germering — Graph

°F

Germering Temperature Yesterday

Maximum temperature yesterday: 63 °F (at 3:50 pm)
Minimum temperature yesterday: 36 °F (at 3:20 am)
Average temperature yesterday: 49 °F

High & Low Weather Summary for the Past Weeks

 TemperatureHumidityPressure
High72 °F (Mar 31, 3:20 pm)93% (Mar 28, 7:20 am)30.54 "Hg (Mar 28, 7:20 am)
Low23 °F (Apr 6, 4:50 am)19% (Mar 29, 3:50 pm)29.65 "Hg (Apr 5, 3:20 pm)
Average43 °F63%30.14 "Hg
* Reported Mar 26 11:20 pm — Apr 11 12:20 am, Germering. Weather by CustomWeather, © 2021

Note: Actual official high and low records may vary slightly from our data, if they occured in-between our weather recording intervals... More about our weather records

Germering Weather History for the Previous 24 Hours

Scroll right to see more
 ConditionsComfort  
Time TempWeatherWind HumidityBarometerVisibility
12:20 am
Sun, Apr 11
46 °FOvercast.12 mph62%29.89 "HgN/A
11:50 pm
Sat, Apr 10
46 °FPassing clouds.10 mph62%29.89 "HgN/A
11:20 pm43 °FOvercast.5 mph76%29.89 "HgN/A
10:50 pm45 °FPassing clouds.2 mph76%29.89 "HgN/A
10:20 pm50 °FPassing clouds.5 mph62%29.89 "HgN/A
9:50 pm48 °FPassing clouds.6 mph66%29.89 "HgN/A
9:20 pm45 °FPassing clouds.3 mph76%29.89 "HgN/A
8:50 pm50 °FClear.2 mph62%29.89 "HgN/A
8:20 pm52 °FClear.5 mph54%29.89 "HgN/A
7:50 pm55 °FSunny.3 mph47%29.89 "HgN/A
7:20 pm57 °FSunny.6 mph44%29.89 "HgN/A
6:50 pm57 °FPassing clouds.6 mph41%29.89 "HgN/A
6:20 pm59 °FPassing clouds.5 mph39%29.89 "HgN/A
5:50 pm61 °FPartly sunny.6 mph36%29.92 "HgN/A
5:20 pm61 °FSunny.2 mph36%29.92 "Hg10 mi
4:50 pm61 °FSunny.7 mph36%29.92 "Hg10 mi
4:20 pm61 °FSunny.5 mph36%29.92 "Hg10 mi
3:50 pm63 °FPassing clouds.5 mph34%29.92 "HgN/A
3:20 pm61 °FSunny.3 mph34%29.95 "Hg10 mi
2:50 pm61 °FPassing clouds.3 mph36%29.95 "HgN/A
2:20 pm61 °FSunny.3 mph36%29.98 "Hg10 mi
1:50 pm59 °FSunny.3 mph36%29.98 "Hg10 mi
1:20 pm57 °FSunny.3 mph41%29.98 "Hg10 mi
12:50 pm57 °FPassing clouds.7 mph41%29.98 "HgN/A
12:20 pm57 °FPartly sunny.8 mph39%30.01 "HgN/A
11:50 am55 °FOvercast.8 mph44%30.01 "HgN/A
11:20 am54 °FMostly cloudy.12 mph47%30.01 "HgN/A
10:50 am54 °FOvercast.14 mph44%30.01 "HgN/A
10:20 am54 °FPartly sunny.16 mph47%30.01 "HgN/A
9:50 am54 °FOvercast.13 mph44%30.01 "HgN/A
9:20 am52 °FMore clouds than sun.10 mph47%29.98 "HgN/A
8:50 am50 °FOvercast.5 mph50%29.98 "HgN/A
8:20 am48 °FOvercast.7 mph54%29.98 "HgN/A
7:50 am45 °FPartly sunny.7 mph66%29.98 "HgN/A
7:20 am41 °FOvercast.7 mph70%29.98 "HgN/A
6:50 am39 °FOvercast.6 mph75%29.98 "HgN/A
6:20 am39 °FOvercast.8 mph75%29.98 "HgN/A
5:50 am37 °FOvercast.8 mph75%29.98 "HgN/A
5:20 am37 °FOvercast.5 mph81%29.98 "HgN/A
4:50 am37 °FOvercast.6 mph75%29.98 "HgN/A
4:20 am39 °FOvercast.2 mph70%29.98 "HgN/A
3:50 am37 °FOvercast.5 mph75%29.98 "HgN/A
3:20 am36 °FPassing clouds.3 mph70%29.98 "HgN/A
2:50 am37 °FPassing clouds.3 mph70%29.98 "HgN/A
2:20 am39 °FPassing clouds.3 mph61%29.98 "HgN/A
1:50 am37 °FPassing clouds.8 mph70%29.98 "HgN/A
1:20 am37 °FPassing clouds.8 mph65%29.98 "HgN/A
Weather by CustomWeather, © 2021

See weather overview